createdAt,value
2023-01-19T00:03:53.646Z,99072.72
2023-01-19T00:08:55.297Z,99087.97
2023-01-19T00:13:57.843Z,99079.59
2023-01-19T00:18:59.693Z,99080.47
2023-01-19T00:24:01.326Z,99085.84
2023-01-19T00:29:04.704Z,99093.66
2023-01-19T00:34:06.918Z,99091.84
2023-01-19T00:39:08.824Z,99099.16
2023-01-19T00:44:11.297Z,99102.44
2023-01-19T00:49:12.907Z,99103.78
2023-01-19T00:54:14.737Z,99119.66
2023-01-19T00:59:16.346Z,99122.19
2023-01-19T01:04:18.029Z,99122.38
2023-01-19T01:09:19.663Z,99119.31
2023-01-19T01:14:21.286Z,99123.75
2023-01-19T01:19:22.855Z,99128.19
2023-01-19T01:24:24.464Z,99143.19
2023-01-19T01:29:26.385Z,99138.03
2023-01-19T01:34:28.182Z,99143.22
2023-01-19T01:39:29.815Z,99141.81
2023-01-19T01:44:51.582Z,99141.38
2023-01-19T01:50:01.515Z,99146.09
2023-01-19T01:55:06.976Z,99159.25
2023-01-19T02:00:09.636Z,99162.56
2023-01-19T02:05:15.482Z,99160.06
2023-01-19T02:10:36.720Z,99165.44
2023-01-19T02:15:38.349Z,99166.69
2023-01-19T02:20:43.528Z,99164.50
2023-01-19T02:25:45.332Z,99171.59
2023-01-19T02:30:47.107Z,99176.91
2023-01-19T02:35:50.884Z,99187.75
2023-01-19T02:40:54.859Z,99192.16
2023-01-19T02:45:57.256Z,99186.41
2023-01-19T02:51:04.212Z,99192.13
2023-01-19T02:56:05.832Z,99193.13
2023-01-19T03:01:21.629Z,99189.47
2023-01-19T03:07:11.826Z,99196.22
2023-01-19T03:12:16.345Z,99195.28
2023-01-19T03:17:19.099Z,99185.47
2023-01-19T03:22:29.382Z,99205.09
2023-01-19T03:27:40.810Z,99219.34
2023-01-19T03:32:53.391Z,99229.41
2023-01-19T03:37:58.181Z,99225.75
2023-01-19T03:43:01.176Z,99225.88
2023-01-19T03:48:03.376Z,99230.13
2023-01-19T03:53:15.812Z,99227.88
2023-01-19T03:58:17.753Z,99219.69
2023-01-19T04:03:19.801Z,99231.09
2023-01-19T04:08:21.412Z,99224.91
2023-01-19T04:13:23.439Z,99237.63
2023-01-19T04:18:25.077Z,99235.06
2023-01-19T04:23:26.992Z,99227.44
2023-01-19T04:28:28.733Z,99228.00
2023-01-19T04:33:30.413Z,99230.91
2023-01-19T04:38:32.032Z,99233.94
2023-01-19T04:43:33.860Z,99231.81
2023-01-19T04:48:35.477Z,99240.66
2023-01-19T04:53:37.464Z,99236.50
2023-01-19T04:58:40.220Z,99241.41
2023-01-19T05:03:41.832Z,99237.38
2023-01-19T05:08:45.327Z,99230.22
2023-01-19T05:13:47.141Z,99233.50
2023-01-19T05:18:48.758Z,99233.41
2023-01-19T05:23:50.766Z,99236.22
2023-01-19T05:28:52.464Z,99233.19
2023-01-19T05:33:54.150Z,99234.97
2023-01-19T05:38:55.836Z,99220.09
2023-01-19T05:43:57.837Z,99219.13
2023-01-19T05:49:01.687Z,99214.53
2023-01-19T05:54:04.609Z,99217.25
2023-01-19T05:59:06.302Z,99226.41
2023-01-19T06:04:07.922Z,99232.38
2023-01-19T06:09:09.706Z,99239.69
2023-01-19T06:14:11.916Z,99235.25
2023-01-19T06:19:13.815Z,99241.19
2023-01-19T06:24:16.543Z,99257.34
2023-01-19T06:29:18.393Z,99254.09
2023-01-19T06:34:20.109Z,99258.88
2023-01-19T06:39:21.652Z,99270.75
2023-01-19T06:44:23.293Z,99283.75
2023-01-19T06:49:24.984Z,99286.75
2023-01-19T06:54:27.216Z,99289.53
2023-01-19T06:59:28.874Z,99296.16
2023-01-19T07:04:30.426Z,99300.75
2023-01-19T07:09:32.059Z,99304.59
2023-01-19T07:14:34.047Z,99298.47
2023-01-19T07:19:35.786Z,99297.28
2023-01-19T07:24:38.386Z,99314.44
2023-01-19T07:29:40.097Z,99307.47
2023-01-19T07:34:41.851Z,99308.66
2023-01-19T07:39:43.549Z,99316.81
2023-01-19T07:44:45.103Z,99326.59
2023-01-19T07:49:46.799Z,99323.44
2023-01-19T07:54:50.911Z,99327.84
2023-01-19T07:59:52.919Z,99329.22
2023-01-19T08:04:55.144Z,99323.78
2023-01-19T08:09:56.891Z,99337.38
2023-01-19T08:14:58.649Z,99338.84
2023-01-19T08:20:00.695Z,99347.44
2023-01-19T08:25:02.344Z,99348.16
2023-01-19T08:30:04.288Z,99349.09
2023-01-19T08:35:06.687Z,99348.06
2023-01-19T08:40:09.192Z,99355.44
2023-01-19T08:45:11.174Z,99361.97
2023-01-19T08:50:12.854Z,99355.88
2023-01-19T08:55:14.568Z,99350.84
2023-01-19T09:00:16.668Z,99353.78
2023-01-19T09:05:18.583Z,99343.13
2023-01-19T09:10:20.291Z,99351.50
2023-01-19T09:15:21.973Z,99348.06
2023-01-19T09:20:23.559Z,99346.47
2023-01-19T09:25:25.886Z,99350.53
2023-01-19T09:30:27.946Z,99353.31
2023-01-19T09:35:31.459Z,99352.91
2023-01-19T09:40:33.463Z,99353.06
2023-01-19T09:45:38.856Z,99341.88
2023-01-19T09:50:46.592Z,99341.19
2023-01-19T09:55:48.234Z,99340.38
2023-01-19T10:01:08.323Z,99338.78
2023-01-19T10:06:12.034Z,99339.66
2023-01-19T10:11:56.496Z,99341.19
2023-01-19T10:17:24.383Z,99340.88
2023-01-19T10:22:28.487Z,99326.25
2023-01-19T10:27:31.834Z,99334.72
2023-01-19T10:32:35.816Z,99322.63
2023-01-19T10:37:38.410Z,99330.34
2023-01-19T10:42:41.753Z,99326.00
2023-01-19T10:47:44.406Z,99322.00
2023-01-19T10:52:50.186Z,99316.44
2023-01-19T10:57:53.607Z,99323.78
2023-01-19T11:02:55.561Z,99327.56
2023-01-19T11:07:57.575Z,99322.88
2023-01-19T11:13:07.506Z,99318.22
2023-01-19T11:18:27.101Z,99315.91
2023-01-19T11:23:31.897Z,99320.47
2023-01-19T11:28:48.494Z,99321.03
2023-01-19T11:33:52.025Z,99312.78
2023-01-19T11:38:56.381Z,99319.69
2023-01-19T11:44:02.235Z,99315.78
2023-01-19T11:49:11.762Z,99318.81
2023-01-19T11:54:27.259Z,99312.94
2023-01-19T11:59:28.942Z,99324.81
2023-01-19T12:04:33.591Z,99317.22
2023-01-19T12:09:38.921Z,99321.28
2023-01-19T12:14:55.651Z,99306.78
2023-01-19T12:20:26.696Z,99311.56
2023-01-19T12:25:58.183Z,99311.81
2023-01-19T12:31:01.201Z,99313.38
2023-01-19T12:36:10.051Z,99315.31
2023-01-19T12:41:21.860Z,99313.25
2023-01-19T12:46:31.136Z,99306.75
2023-01-19T12:51:33.428Z,99293.69
2023-01-19T12:56:37.136Z,99299.72
2023-01-19T13:01:38.842Z,99303.50
2023-01-19T13:06:49.666Z,99293.97
2023-01-19T13:12:19.542Z,99292.72
2023-01-19T13:17:31.699Z,99285.59
2023-01-19T13:22:51.209Z,99282.34
2023-01-19T13:27:52.902Z,99280.34
2023-01-19T13:33:04.587Z,99294.66
2023-01-19T13:38:07.306Z,99290.53
2023-01-19T13:43:18.601Z,99284.88
2023-01-19T13:48:24.663Z,99292.34
2023-01-19T13:53:26.533Z,99294.06
2023-01-19T13:58:29.277Z,99293.47
2023-01-19T14:03:31.075Z,99298.78
2023-01-19T14:08:33.797Z,99301.41
2023-01-19T14:13:40.300Z,99297.06
2023-01-19T14:18:42.167Z,99303.47
2023-01-19T14:23:48.408Z,99313.38
2023-01-19T14:28:50.059Z,99310.13
2023-01-19T14:33:53.495Z,99322.94
2023-01-19T14:38:56.882Z,99317.34
2023-01-19T14:43:59.197Z,99317.53
2023-01-19T14:49:03.851Z,99320.41
2023-01-19T14:54:05.654Z,99314.72
2023-01-19T14:59:09.906Z,99316.72
2023-01-19T15:04:11.624Z,99326.44
2023-01-19T15:09:14.517Z,99329.78
2023-01-19T15:14:17.104Z,99336.28
2023-01-19T15:19:18.754Z,99337.41
2023-01-19T15:24:20.415Z,99346.44
2023-01-19T15:29:26.219Z,99340.16
2023-01-19T15:34:27.921Z,99353.56
2023-01-19T15:39:29.667Z,99362.88
2023-01-19T15:44:31.383Z,99357.56
2023-01-19T15:49:33.426Z,99367.94
2023-01-19T15:54:35.078Z,99368.41
2023-01-19T15:59:36.793Z,99368.56
2023-01-19T16:04:38.414Z,99363.16
2023-01-19T16:09:40.326Z,99374.63
2023-01-19T16:14:41.966Z,99381.63
2023-01-19T16:19:43.610Z,99378.47
2023-01-19T16:24:45.311Z,99386.41
2023-01-19T16:29:47.889Z,99386.75
2023-01-19T16:34:49.525Z,99390.03
2023-01-19T16:39:51.730Z,99408.28
2023-01-19T16:44:54.584Z,99399.50
2023-01-19T16:49:56.252Z,99402.22
2023-01-19T16:54:57.932Z,99407.31
2023-01-19T16:59:59.672Z,99412.50
2023-01-19T17:05:01.426Z,99412.84
2023-01-19T17:10:03.436Z,99408.59
2023-01-19T17:15:05.575Z,99419.53
2023-01-19T17:20:08.037Z,99418.56
2023-01-19T17:25:09.800Z,99425.38
2023-01-19T17:30:12.075Z,99419.22
2023-01-19T17:35:14.040Z,99431.09
2023-01-19T17:40:16.081Z,99435.75
2023-01-19T17:45:17.785Z,99437.44
2023-01-19T17:50:19.437Z,99433.19
2023-01-19T17:55:21.067Z,99441.25
2023-01-19T18:00:23.073Z,99445.09
2023-01-19T18:05:24.822Z,99450.50
2023-01-19T18:10:26.496Z,99454.31
2023-01-19T18:15:28.174Z,99446.47
2023-01-19T18:20:31.696Z,99437.34
2023-01-19T18:25:33.472Z,99444.34
2023-01-19T18:30:37.373Z,99445.72
2023-01-19T18:35:39.821Z,99448.91
2023-01-19T18:40:41.703Z,99459.81
2023-01-19T18:45:45.810Z,99457.06
2023-01-19T18:50:47.588Z,99470.09
2023-01-19T18:55:54.157Z,99465.22
2023-01-19T19:00:56.707Z,99472.75
2023-01-19T19:06:02.471Z,99474.88
2023-01-19T19:11:07.798Z,99471.25
2023-01-19T19:16:10.801Z,99478.25
2023-01-19T19:21:12.798Z,99488.44
2023-01-19T19:26:14.480Z,99491.94
2023-01-19T19:31:20.493Z,99483.66
2023-01-19T19:36:24.082Z,99481.00
2023-01-19T19:41:27.273Z,99493.84
2023-01-19T19:46:29.048Z,99489.91
2023-01-19T19:51:30.724Z,99500.28
2023-01-19T19:56:34.327Z,99501.88
2023-01-19T20:01:36.146Z,99501.13
2023-01-19T20:06:44.438Z,99513.22
2023-01-19T20:11:46.846Z,99510.03
2023-01-19T20:16:48.574Z,99515.16
2023-01-19T20:21:50.265Z,99518.22
2023-01-19T20:26:53.268Z,99526.19
2023-01-19T20:31:55.894Z,99527.34
2023-01-19T20:36:57.949Z,99523.00
2023-01-19T20:41:59.596Z,99542.09
2023-01-19T20:47:39.118Z,99540.09
2023-01-19T20:52:40.752Z,99535.63
2023-01-19T20:57:43.110Z,99543.38
2023-01-19T21:02:44.843Z,99539.88
2023-01-19T21:07:46.492Z,99553.75
2023-01-19T21:12:48.308Z,99552.81
2023-01-19T21:17:49.956Z,99566.81
2023-01-19T21:22:52.352Z,99570.00
2023-01-19T21:27:54.006Z,99580.50
2023-01-19T21:32:55.754Z,99581.25
2023-01-19T21:37:58.546Z,99576.56
2023-01-19T21:43:00.227Z,99583.25
2023-01-19T21:48:01.943Z,99586.75
2023-01-19T21:53:05.989Z,99585.78
2023-01-19T21:58:07.693Z,99589.91
2023-01-19T22:03:09.454Z,99594.28
2023-01-19T22:08:11.111Z,99595.84
2023-01-19T22:13:12.887Z,99595.84
2023-01-19T22:18:14.678Z,99606.31
2023-01-19T22:23:16.530Z,99605.44
2023-01-19T22:28:18.199Z,99611.63
2023-01-19T22:33:19.926Z,99621.28
2023-01-19T22:38:22.123Z,99612.47
2023-01-19T22:43:23.817Z,99619.38
2023-01-19T22:48:25.447Z,99615.84
2023-01-19T22:53:27.081Z,99619.25
2023-01-19T22:58:28.794Z,99619.25
2023-01-19T23:03:30.405Z,99617.56
2023-01-19T23:08:32.395Z,99617.56
2023-01-19T23:13:34.329Z,99616.94
2023-01-19T23:18:36.422Z,99614.28
2023-01-19T23:23:38.488Z,99614.16
2023-01-19T23:28:40.322Z,99616.94
2023-01-19T23:33:44.088Z,99614.34
2023-01-19T23:38:51.145Z,99618.75
2023-01-19T23:43:52.800Z,99617.78
2023-01-19T23:48:54.654Z,99609.88
2023-01-19T23:53:57.268Z,99611.69
2023-01-19T23:59:02.147Z,99615.19
